createdAt,value
2023-02-11T00:01:18.250Z,-12.73
2023-02-11T00:04:23.124Z,-12.61
2023-02-11T00:07:27.623Z,-13.35
2023-02-11T00:10:39.365Z,-12.90
2023-02-11T00:13:45.703Z,-12.60
2023-02-11T00:16:50.455Z,-12.46
2023-02-11T00:19:57.472Z,-12.16
2023-02-11T00:23:02.009Z,-11.75
2023-02-11T00:26:16.892Z,-12.12
2023-02-11T00:29:30.781Z,-11.56
2023-02-11T00:32:38.706Z,-10.94
2023-02-11T00:35:46.024Z,-10.81
2023-02-11T00:38:52.053Z,-10.57
2023-02-11T00:42:02.127Z,-10.59
2023-02-11T00:45:06.914Z,-9.63
2023-02-11T00:48:14.015Z,-9.06
2023-02-11T00:51:21.018Z,-8.40
2023-02-11T00:54:27.821Z,-7.64
2023-02-11T00:57:36.086Z,-7.37
2023-02-11T01:00:46.471Z,-6.64
2023-02-11T01:03:51.079Z,-5.29
2023-02-11T01:06:55.438Z,-5.03
2023-02-11T01:09:59.671Z,-5.31
2023-02-11T01:13:07.719Z,-5.49
2023-02-11T01:16:13.169Z,-6.03
2023-02-11T01:19:17.488Z,-5.48
2023-02-11T01:22:23.536Z,-5.76
2023-02-11T01:25:28.048Z,-5.70
2023-02-11T01:28:32.715Z,-6.04
2023-02-11T01:31:37.938Z,-5.98
2023-02-11T01:34:42.467Z,-5.72
2023-02-11T01:37:47.049Z,-5.30
2023-02-11T01:40:55.105Z,-4.68
2023-02-11T01:43:59.715Z,-3.90
2023-02-11T01:47:08.332Z,-4.32
2023-02-11T01:50:12.696Z,-4.47
2023-02-11T01:53:37.303Z,-5.34
2023-02-11T01:57:04.998Z,-4.89
2023-02-11T02:00:14.708Z,-4.94
2023-02-11T02:03:23.380Z,-3.57
2023-02-11T02:06:34.481Z,-4.26
2023-02-11T02:09:43.108Z,-3.67
2023-02-11T02:12:47.756Z,-3.97
2023-02-11T02:16:02.701Z,-4.27
2023-02-11T02:19:41.374Z,-4.02
2023-02-11T02:22:59.496Z,-4.33
2023-02-11T02:26:15.668Z,-3.62
2023-02-11T02:29:38.164Z,-2.95
2023-02-11T02:32:51.170Z,-3.65
2023-02-11T02:35:58.603Z,-3.19
2023-02-11T02:39:11.870Z,-3.61
2023-02-11T02:42:17.470Z,-4.81
2023-02-11T02:45:21.718Z,-4.10
2023-02-11T02:48:36.625Z,-4.46
2023-02-11T02:51:47.475Z,-3.66
2023-02-11T02:55:10.223Z,-4.38
2023-02-11T02:58:43.461Z,-4.58
2023-02-11T03:02:06.395Z,-3.90
2023-02-11T03:09:56.013Z,-4.38
2023-02-11T03:13:04.079Z,-4.29
2023-02-11T03:16:23.042Z,-5.23
2023-02-11T03:19:41.582Z,-4.85
2023-02-11T03:23:07.775Z,-4.53
2023-02-11T03:26:42.067Z,-4.26
2023-02-11T03:30:18.904Z,-3.92
2023-02-11T03:33:32.724Z,-3.65
2023-02-11T03:36:52.584Z,-3.89
2023-02-11T03:40:10.142Z,-4.62
2023-02-11T03:43:25.489Z,-5.26
2023-02-11T03:46:51.796Z,-5.15
2023-02-11T03:49:58.966Z,-4.78
2023-02-11T03:53:04.878Z,-4.51
2023-02-11T03:56:24.037Z,-4.74
2023-02-11T03:59:30.782Z,-4.62
2023-02-11T04:02:46.833Z,-4.51
2023-02-11T04:05:51.585Z,-4.10
2023-02-11T04:08:58.232Z,-4.35
2023-02-11T04:12:02.575Z,-3.89
2023-02-11T04:15:07.076Z,-4.32
2023-02-11T04:18:11.437Z,-3.46
2023-02-11T04:21:15.890Z,-3.60
2023-02-11T04:24:20.283Z,-2.52
2023-02-11T04:27:24.792Z,-2.91
2023-02-11T04:30:29.380Z,-3.75
2023-02-11T04:33:34.082Z,-3.67
2023-02-11T04:36:38.430Z,-3.50
2023-02-11T04:39:42.929Z,-3.06
2023-02-11T04:42:47.259Z,-2.69
2023-02-11T04:45:51.681Z,-2.87
2023-02-11T04:48:57.529Z,-3.48
2023-02-11T04:52:01.636Z,-3.39
2023-02-11T04:55:06.516Z,-3.40
2023-02-11T04:58:11.013Z,-2.73
2023-02-11T05:01:17.515Z,-2.90
2023-02-11T05:04:22.028Z,-3.73
2023-02-11T05:07:26.282Z,-3.08
2023-02-11T05:10:30.182Z,-2.13
2023-02-11T05:13:35.085Z,-2.45
2023-02-11T05:16:39.778Z,-1.93
2023-02-11T05:19:46.320Z,-2.36
2023-02-11T05:22:50.852Z,-1.85
2023-02-11T05:25:55.342Z,-1.96
2023-02-11T05:28:59.227Z,-1.94
2023-02-11T05:32:03.478Z,-2.38
2023-02-11T05:35:08.929Z,-2.57
2023-02-11T05:38:15.604Z,-2.83
2023-02-11T05:41:19.980Z,-2.94
2023-02-11T05:44:24.301Z,-2.17
2023-02-11T05:47:28.987Z,-1.76
2023-02-11T05:50:33.484Z,-1.63
2023-02-11T05:53:41.389Z,-1.75
2023-02-11T05:56:48.796Z,-2.00
2023-02-11T05:59:52.647Z,-2.26
2023-02-11T06:02:57.396Z,-2.52
2023-02-11T06:06:01.966Z,-2.37
2023-02-11T06:09:07.934Z,-2.14
2023-02-11T06:12:12.024Z,-2.54
2023-02-11T06:15:16.698Z,-3.07
2023-02-11T06:18:21.093Z,-2.53
2023-02-11T06:21:33.563Z,-2.37
2023-02-11T06:25:00.243Z,-2.62
2023-02-11T06:28:08.441Z,-2.78
2023-02-11T06:31:13.162Z,-3.11
2023-02-11T06:34:17.517Z,-2.87
2023-02-11T06:37:22.091Z,-3.35
2023-02-11T06:40:26.679Z,-3.12
2023-02-11T06:43:31.269Z,-3.21
2023-02-11T06:46:35.364Z,-3.23
2023-02-11T06:49:40.076Z,-3.49
2023-02-11T06:52:44.704Z,-3.50
2023-02-11T06:55:49.635Z,-3.42
2023-02-11T06:58:57.808Z,-3.68
2023-02-11T07:02:02.248Z,-3.58
2023-02-11T07:05:08.456Z,-3.61
2023-02-11T07:08:13.104Z,-3.58
2023-02-11T07:11:20.607Z,-3.81
2023-02-11T07:14:24.933Z,-4.48
2023-02-11T07:17:32.693Z,-4.21
2023-02-11T07:20:41.088Z,-4.38
2023-02-11T07:23:45.775Z,-4.17
2023-02-11T07:26:49.981Z,-4.41
2023-02-11T07:29:54.398Z,-4.46
2023-02-11T07:32:58.497Z,-4.52
2023-02-11T07:36:03.786Z,-4.99
2023-02-11T07:39:08.387Z,-5.19
2023-02-11T07:42:12.604Z,-5.21
2023-02-11T07:45:17.121Z,-5.11
2023-02-11T07:48:21.264Z,-5.14
2023-02-11T07:51:28.712Z,-5.20
2023-02-11T07:54:32.862Z,-5.19
2023-02-11T07:57:37.117Z,-5.31
2023-02-11T08:00:41.638Z,-5.81
2023-02-11T08:03:45.749Z,-5.83
2023-02-11T08:06:51.537Z,-6.26
2023-02-11T08:09:56.404Z,-6.62
2023-02-11T08:13:00.921Z,-6.17
2023-02-11T08:16:06.820Z,-6.08
2023-02-11T08:19:17.900Z,-6.26
2023-02-11T08:22:22.538Z,-6.32
2023-02-11T08:25:27.363Z,-6.47
2023-02-11T08:28:32.275Z,-6.48
2023-02-11T08:31:40.671Z,-6.99
2023-02-11T08:34:45.255Z,-6.70
2023-02-11T08:37:55.283Z,-6.93
2023-02-11T08:41:01.964Z,-7.35
2023-02-11T08:44:09.066Z,-7.77
2023-02-11T08:47:13.446Z,-8.50
2023-02-11T08:50:17.713Z,-8.48
2023-02-11T08:53:22.544Z,-8.58
2023-02-11T08:56:27.709Z,-8.71
2023-02-11T08:59:35.474Z,-9.07
2023-02-11T09:02:40.737Z,-9.17
2023-02-11T09:05:51.055Z,-9.15
2023-02-11T09:08:57.716Z,-8.98
2023-02-11T09:12:02.313Z,-9.23
2023-02-11T09:15:06.732Z,-9.35
2023-02-11T09:18:11.064Z,-9.26
2023-02-11T09:21:18.599Z,-9.54
2023-02-11T09:24:26.129Z,-9.55
2023-02-11T09:27:33.458Z,-9.69
2023-02-11T09:30:39.007Z,-10.11
2023-02-11T09:33:48.613Z,-10.17
2023-02-11T09:36:53.524Z,-10.21
2023-02-11T09:39:57.997Z,-11.57
2023-02-11T09:43:09.725Z,-9.99
2023-02-11T09:46:17.659Z,-10.41
2023-02-11T09:49:27.302Z,-10.23
2023-02-11T09:53:21.458Z,-10.67
2023-02-11T09:56:26.689Z,-10.55
2023-02-11T09:59:31.113Z,-10.54
2023-02-11T10:02:58.693Z,-10.39
2023-02-11T10:06:41.471Z,-10.61
2023-02-11T10:09:59.071Z,-10.82
2023-02-11T10:13:42.101Z,-11.29
2023-02-11T10:17:00.003Z,-11.48
2023-02-11T10:20:28.746Z,-11.41
2023-02-11T10:23:37.904Z,-11.03
2023-02-11T10:26:43.038Z,-11.36
2023-02-11T10:30:03.644Z,-11.25
2023-02-11T10:33:24.313Z,-11.43
2023-02-11T10:36:35.464Z,-11.57
2023-02-11T10:39:40.772Z,-12.14
2023-02-11T10:42:55.697Z,-11.82
2023-02-11T10:46:03.971Z,-12.18
2023-02-11T10:49:37.451Z,-12.15
2023-02-11T10:52:42.088Z,-12.26
2023-02-11T10:55:58.353Z,-12.02
2023-02-11T10:59:19.751Z,-11.80
2023-02-11T11:02:32.729Z,-11.89
2023-02-11T11:05:52.252Z,-12.25
2023-02-11T11:08:56.633Z,-12.48
2023-02-11T11:12:03.750Z,-12.06
2023-02-11T11:15:36.855Z,-12.69
2023-02-11T11:18:50.887Z,-12.23
2023-02-11T11:21:57.541Z,-12.24
2023-02-11T11:25:02.437Z,-12.66
2023-02-11T11:28:07.917Z,-12.65
2023-02-11T11:31:20.306Z,-12.59
2023-02-11T11:34:41.359Z,-12.12
2023-02-11T11:37:46.645Z,-12.76
2023-02-11T11:41:10.231Z,-12.46
2023-02-11T11:44:31.156Z,-12.78
2023-02-11T11:47:57.670Z,-12.70
2023-02-11T11:51:05.983Z,-12.35
2023-02-11T11:54:19.054Z,-12.34
2023-02-11T11:57:31.888Z,-12.39
2023-02-11T12:00:59.938Z,-12.55
2023-02-11T12:04:24.437Z,-12.17
2023-02-11T12:07:37.493Z,-12.17
2023-02-11T12:10:51.677Z,-12.12
2023-02-11T12:14:07.762Z,-12.35
2023-02-11T12:17:23.540Z,-12.08
2023-02-11T12:20:53.226Z,-12.81
2023-02-11T12:24:30.387Z,-12.75
2023-02-11T12:27:45.252Z,-12.35
2023-02-11T12:35:05.399Z,-13.21
2023-02-11T12:38:40.535Z,-12.40
2023-02-11T12:43:14.321Z,-12.02
2023-02-11T12:46:55.859Z,-12.05
2023-02-11T12:50:19.193Z,-11.82
2023-02-11T12:53:51.911Z,-12.27
2023-02-11T12:57:01.771Z,-12.07
2023-02-11T13:00:28.781Z,-12.15
2023-02-11T13:04:01.182Z,-13.74
2023-02-11T13:07:33.315Z,-12.19
2023-02-11T13:10:54.080Z,-12.60
2023-02-11T13:14:23.527Z,-12.40
2023-02-11T13:18:41.199Z,-12.12
2023-02-11T13:21:59.068Z,-12.71
2023-02-11T13:25:26.831Z,-11.61
2023-02-11T13:28:56.863Z,-12.01
2023-02-11T13:32:22.519Z,-11.51
2023-02-11T13:35:38.437Z,-11.35
2023-02-11T13:38:52.440Z,-11.60
2023-02-11T13:42:05.386Z,-11.78
2023-02-11T13:45:37.455Z,-11.82
2023-02-11T13:48:51.005Z,-11.85
2023-02-11T13:51:56.953Z,-11.92
2023-02-11T13:55:28.917Z,-12.55
2023-02-11T13:58:33.165Z,-12.04
2023-02-11T14:01:43.663Z,-11.85
2023-02-11T14:05:25.077Z,-11.68
2023-02-11T14:08:47.844Z,-11.34
2023-02-11T14:12:15.685Z,-11.15
2023-02-11T14:15:22.258Z,-11.07
2023-02-11T14:18:52.769Z,-11.01
2023-02-11T14:22:04.717Z,-11.55
2023-02-11T14:25:23.529Z,-11.35
2023-02-11T14:28:36.605Z,-11.16
2023-02-11T14:31:55.787Z,-11.75
2023-02-11T14:35:11.632Z,-11.83
2023-02-11T14:38:46.678Z,-11.76
2023-02-11T14:41:56.975Z,-12.04
2023-02-11T14:45:12.923Z,-11.53
2023-02-11T14:48:28.740Z,-11.60
2023-02-11T14:51:46.252Z,-11.84
2023-02-11T14:55:01.100Z,-11.35
2023-02-11T14:58:26.306Z,-11.34
2023-02-11T15:01:36.643Z,-11.71
2023-02-11T15:04:44.489Z,-12.28
2023-02-11T15:07:58.223Z,-12.04
2023-02-11T15:11:13.188Z,-12.18
2023-02-11T15:14:29.734Z,-11.81
2023-02-11T15:17:36.510Z,-11.80
2023-02-11T15:20:42.808Z,-11.75
2023-02-11T15:23:57.763Z,-12.32
2023-02-11T15:27:16.438Z,-12.40
2023-02-11T15:30:37.259Z,-12.60
2023-02-11T15:33:43.784Z,-12.77
2023-02-11T15:36:51.391Z,-12.86
2023-02-11T15:40:09.708Z,-12.78
2023-02-11T15:43:14.090Z,-12.65
2023-02-11T15:46:22.775Z,-12.69
2023-02-11T15:49:28.402Z,-12.99
2023-02-11T15:52:34.057Z,-12.58
2023-02-11T15:55:42.463Z,-12.59
2023-02-11T15:58:49.473Z,-12.51
2023-02-11T16:01:55.768Z,-11.83
2023-02-11T16:05:10.875Z,-11.97
2023-02-11T16:08:36.284Z,-12.00
2023-02-11T16:11:49.686Z,-11.96
2023-02-11T16:14:54.071Z,-12.27
2023-02-11T16:18:02.451Z,-12.31
2023-02-11T16:21:16.767Z,-11.69
2023-02-11T16:24:25.832Z,-11.90
2023-02-11T16:27:42.033Z,-11.70
2023-02-11T16:30:46.964Z,-11.36
2023-02-11T16:33:53.153Z,-11.59
2023-02-11T16:36:57.724Z,-11.66
2023-02-11T16:40:01.910Z,-11.39
2023-02-11T16:43:07.997Z,-11.29
2023-02-11T16:46:16.930Z,-11.46
2023-02-11T16:49:32.855Z,-11.16
2023-02-11T16:52:38.326Z,-11.50
2023-02-11T16:55:45.941Z,-11.84
2023-02-11T16:58:50.078Z,-11.97
2023-02-11T17:01:56.080Z,-12.05
2023-02-11T17:05:06.549Z,-12.53
2023-02-11T17:08:13.736Z,-12.43
2023-02-11T17:11:23.676Z,-12.68
2023-02-11T17:14:32.253Z,-12.41
2023-02-11T17:17:39.457Z,-12.29
2023-02-11T17:20:46.923Z,-12.10
2023-02-11T17:23:54.360Z,-11.71
2023-02-11T17:27:01.459Z,-12.27
2023-02-11T17:30:14.629Z,-12.28
2023-02-11T17:33:19.834Z,-12.30
2023-02-11T17:36:32.055Z,-12.24
2023-02-11T17:39:40.788Z,-12.29
2023-02-11T17:42:45.424Z,-12.41
2023-02-11T17:45:52.904Z,-12.92
2023-02-11T17:49:00.468Z,-12.86
2023-02-11T17:52:05.297Z,-12.69
2023-02-11T17:55:09.979Z,-12.89
2023-02-11T17:58:14.148Z,-13.17
2023-02-11T18:01:18.509Z,-12.97
2023-02-11T18:04:22.909Z,-13.04
2023-02-11T18:07:28.090Z,-12.97
2023-02-11T18:10:32.743Z,-13.25
2023-02-11T18:13:37.509Z,-13.32
2023-02-11T18:16:44.460Z,-13.32
2023-02-11T18:19:49.630Z,-13.18
2023-02-11T18:22:53.720Z,-13.40
2023-02-11T18:26:00.737Z,-13.74
2023-02-11T18:29:07.750Z,-13.70
2023-02-11T18:32:12.320Z,-14.06
2023-02-11T18:35:20.938Z,-14.01
2023-02-11T18:38:26.428Z,-13.85
2023-02-11T18:41:30.743Z,-13.64
2023-02-11T18:44:35.177Z,-13.19
2023-02-11T18:47:40.547Z,-12.95
2023-02-11T18:50:57.972Z,-13.49
2023-02-11T18:54:04.911Z,-13.58
2023-02-11T18:57:11.160Z,-13.57
2023-02-11T19:00:16.469Z,-14.19
2023-02-11T19:03:23.949Z,-14.31
2023-02-11T19:06:35.486Z,-14.02
2023-02-11T19:09:48.970Z,-14.41
2023-02-11T19:12:59.905Z,-14.16
2023-02-11T19:16:11.089Z,-14.20
2023-02-11T19:19:19.403Z,-14.76
2023-02-11T19:22:23.963Z,-15.15
2023-02-11T19:25:36.098Z,-14.82
2023-02-11T19:28:40.143Z,-14.80
2023-02-11T19:31:47.335Z,-14.55
2023-02-11T19:34:53.904Z,-14.70
2023-02-11T19:38:00.226Z,-14.49
2023-02-11T19:41:07.121Z,-14.20
2023-02-11T19:44:14.850Z,-14.07
2023-02-11T19:47:23.144Z,-13.98
2023-02-11T19:50:30.166Z,-14.02
2023-02-11T19:53:34.601Z,-13.71
2023-02-11T19:56:38.979Z,-13.49
2023-02-11T19:59:43.413Z,-13.67
2023-02-11T20:02:47.935Z,-13.34
2023-02-11T20:05:53.600Z,-13.15
2023-02-11T20:09:03.566Z,-13.23
2023-02-11T20:12:08.459Z,-13.58
2023-02-11T20:15:12.754Z,-12.86
2023-02-11T20:18:16.678Z,-12.74
2023-02-11T20:21:27.064Z,-13.04
2023-02-11T20:24:31.576Z,-12.75
2023-02-11T20:27:36.122Z,-12.37
2023-02-11T20:30:40.692Z,-12.28
2023-02-11T20:33:46.043Z,-12.33
2023-02-11T20:36:53.578Z,-12.17
2023-02-11T20:39:59.612Z,-12.50
2023-02-11T20:43:04.164Z,-12.44
2023-02-11T20:46:09.565Z,-12.73
2023-02-11T20:49:20.049Z,-12.61
2023-02-11T20:52:24.011Z,-12.61
2023-02-11T20:55:28.391Z,-12.81
2023-02-11T20:58:33.947Z,-12.63
2023-02-11T21:01:47.452Z,-12.55
2023-02-11T21:04:51.834Z,-12.60
2023-02-11T21:07:56.285Z,-12.59
2023-02-11T21:11:00.771Z,-12.68
2023-02-11T21:14:05.272Z,-12.75
2023-02-11T21:17:09.643Z,-12.92
2023-02-11T21:20:14.486Z,-12.81
2023-02-11T21:23:19.260Z,-13.16
2023-02-11T21:26:24.361Z,-12.99
2023-02-11T21:29:28.832Z,-13.18
2023-02-11T21:32:33.257Z,-12.78
2023-02-11T21:35:38.705Z,-12.45
2023-02-11T21:38:43.134Z,-12.48
2023-02-11T21:41:47.612Z,-12.57
2023-02-11T21:44:51.962Z,-12.68
2023-02-11T21:47:56.050Z,-12.71
2023-02-11T21:51:01.842Z,-12.52
2023-02-11T21:54:06.411Z,-12.85
2023-02-11T21:57:12.214Z,-12.74
2023-02-11T22:00:17.480Z,-13.23
2023-02-11T22:03:21.564Z,-12.89
2023-02-11T22:06:28.496Z,-13.00
2023-02-11T22:09:32.784Z,-13.38
2023-02-11T22:12:37.214Z,-13.56
2023-02-11T22:15:41.279Z,-13.73
2023-02-11T22:18:47.260Z,-13.93
2023-02-11T22:21:51.679Z,-13.96
2023-02-11T22:24:57.723Z,-13.78
2023-02-11T22:28:02.208Z,-14.07
2023-02-11T22:31:06.839Z,-13.47
2023-02-11T22:34:11.336Z,-13.13
2023-02-11T22:37:15.925Z,-13.09
2023-02-11T22:40:20.623Z,-12.87
2023-02-11T22:43:25.060Z,-12.86
2023-02-11T22:46:29.522Z,-12.82
2023-02-11T22:49:37.389Z,-13.01
2023-02-11T22:52:41.622Z,-13.01
2023-02-11T22:55:48.220Z,-12.84
2023-02-11T22:58:54.104Z,-12.83
2023-02-11T23:01:58.469Z,-12.90
2023-02-11T23:05:11.678Z,-12.84
2023-02-11T23:08:19.981Z,-12.89
2023-02-11T23:11:28.595Z,-12.37
2023-02-11T23:14:32.793Z,-12.34
2023-02-11T23:17:37.440Z,-12.09
2023-02-11T23:20:44.624Z,-12.07
2023-02-11T23:23:50.220Z,-11.82
2023-02-11T23:26:54.679Z,-11.88
2023-02-11T23:29:59.048Z,-11.77
2023-02-11T23:33:03.558Z,-11.58
2023-02-11T23:36:08.634Z,-11.23
2023-02-11T23:39:18.844Z,-11.70
2023-02-11T23:42:25.889Z,-11.28
2023-02-11T23:45:39.557Z,-11.31
2023-02-11T23:48:43.841Z,-10.83
2023-02-11T23:51:48.252Z,-10.32
2023-02-11T23:54:52.285Z,-9.85
2023-02-11T23:57:56.483Z,-9.79
